createdAt,value
2022-12-06T00:01:39.587Z,19.83
2022-12-06T00:04:11.973Z,19.40
2022-12-06T00:06:43.025Z,19.40
2022-12-06T00:09:23.570Z,19.15
2022-12-06T00:11:52.407Z,20.95
2022-12-06T00:14:21.848Z,20.02
2022-12-06T00:16:50.977Z,19.55
2022-12-06T00:19:22.220Z,20.05
2022-12-06T00:21:51.112Z,20.73
2022-12-06T00:24:23.844Z,20.63
2022-12-06T00:26:52.519Z,19.98
2022-12-06T00:29:24.298Z,18.88
2022-12-06T00:31:52.498Z,20.98
2022-12-06T00:34:21.801Z,18.55
2022-12-06T00:36:49.943Z,21.00
2022-12-06T00:39:19.314Z,19.08
2022-12-06T00:41:48.233Z,19.60
2022-12-06T00:44:16.492Z,18.75
2022-12-06T00:46:44.894Z,18.95
2022-12-06T00:49:13.134Z,19.00
2022-12-06T00:51:41.753Z,18.58
2022-12-06T00:54:13.849Z,17.95
2022-12-06T00:56:42.134Z,18.88
2022-12-06T00:59:10.718Z,17.30
2022-12-06T01:01:39.087Z,17.55
2022-12-06T01:04:07.870Z,15.95
2022-12-06T01:06:37.598Z,16.45
2022-12-06T01:09:09.385Z,14.93
2022-12-06T01:11:38.544Z,16.02
2022-12-06T01:14:07.255Z,15.23
2022-12-06T01:16:36.068Z,14.77
2022-12-06T01:19:06.302Z,15.32
2022-12-06T01:21:34.793Z,15.60
2022-12-06T01:24:03.493Z,15.75
2022-12-06T01:26:35.699Z,15.30
2022-12-06T01:29:04.703Z,15.02
2022-12-06T01:31:38.218Z,15.07
2022-12-06T01:34:16.981Z,14.32
2022-12-06T01:36:46.772Z,13.68
2022-12-06T01:39:15.115Z,14.18
2022-12-06T01:41:43.172Z,12.93
2022-12-06T01:44:41.418Z,13.68
2022-12-06T01:47:30.093Z,13.27
2022-12-06T01:50:03.776Z,13.00
2022-12-06T01:53:07.414Z,12.20
2022-12-06T01:55:39.589Z,11.40
2022-12-06T01:58:18.263Z,12.02
2022-12-06T02:00:46.649Z,11.57
2022-12-06T02:03:24.712Z,11.77
2022-12-06T02:05:53.424Z,12.27
2022-12-06T02:08:22.687Z,12.32
2022-12-06T02:10:51.609Z,11.98
2022-12-06T02:13:21.109Z,13.52
2022-12-06T02:16:03.319Z,13.32
2022-12-06T02:18:38.304Z,12.70
2022-12-06T02:21:09.973Z,13.13
2022-12-06T02:24:12.476Z,13.15
2022-12-06T02:26:53.368Z,12.63
2022-12-06T02:29:46.518Z,13.38
2022-12-06T02:32:53.181Z,12.48
2022-12-06T02:35:31.804Z,11.55
2022-12-06T02:38:13.438Z,11.30
2022-12-06T02:40:54.809Z,11.75
2022-12-06T02:43:28.385Z,12.00
2022-12-06T02:45:59.949Z,11.02
2022-12-06T02:48:28.739Z,11.70
2022-12-06T02:51:04.964Z,11.18
2022-12-06T02:53:37.883Z,11.05
2022-12-06T02:56:06.405Z,12.40
2022-12-06T02:58:38.959Z,11.18
2022-12-06T03:01:18.609Z,12.20
2022-12-06T03:03:52.108Z,11.85
2022-12-06T03:06:20.721Z,13.25
2022-12-06T03:09:24.681Z,13.10
2022-12-06T03:12:05.338Z,12.70
2022-12-06T03:14:45.279Z,12.27
2022-12-06T03:17:26.750Z,12.70
2022-12-06T03:20:02.957Z,13.05
2022-12-06T03:22:45.923Z,13.80
2022-12-06T03:25:15.214Z,12.73
2022-12-06T03:27:45.418Z,14.00
2022-12-06T03:30:15.425Z,14.05
2022-12-06T03:32:47.544Z,13.48
2022-12-06T03:35:21.874Z,13.57
2022-12-06T03:37:56.619Z,11.38
2022-12-06T03:40:29.745Z,12.35
2022-12-06T03:42:59.364Z,11.88
2022-12-06T03:45:59.441Z,12.00
2022-12-06T03:48:36.569Z,11.50
2022-12-06T03:51:08.624Z,11.95
2022-12-06T03:53:47.309Z,13.23
2022-12-06T03:56:15.925Z,12.65
2022-12-06T03:58:44.524Z,12.60
2022-12-06T04:01:13.275Z,11.98
2022-12-06T04:03:41.623Z,11.88
2022-12-06T04:06:11.106Z,12.32
2022-12-06T04:08:39.375Z,12.55
2022-12-06T04:11:08.425Z,13.10
2022-12-06T04:13:36.829Z,12.88
2022-12-06T04:16:26.064Z,12.18
2022-12-06T04:18:54.273Z,12.20
2022-12-06T04:21:34.624Z,12.00
2022-12-06T04:24:03.860Z,12.57
2022-12-06T04:26:31.914Z,12.73
2022-12-06T04:29:18.479Z,12.15
2022-12-06T04:32:05.154Z,12.05
2022-12-06T04:34:51.593Z,11.80
2022-12-06T04:37:38.435Z,12.45
2022-12-06T04:40:07.708Z,12.27
2022-12-06T16:22:46.572Z,20.67
2022-12-06T16:25:15.173Z,25.63
2022-12-06T16:27:43.474Z,24.30
2022-12-06T16:30:12.950Z,23.48
2022-12-06T16:32:41.706Z,23.30
2022-12-06T16:35:10.045Z,23.17
2022-12-06T16:37:39.444Z,21.58
2022-12-06T16:40:19.885Z,17.80
2022-12-06T16:42:48.099Z,17.63
2022-12-06T16:45:16.924Z,18.48
2022-12-06T16:47:49.240Z,19.27
2022-12-06T16:50:27.690Z,17.98
2022-12-06T16:52:56.383Z,17.98
2022-12-06T16:55:24.498Z,18.50
2022-12-06T16:57:52.985Z,18.23
2022-12-06T17:00:21.973Z,18.70
2022-12-06T17:02:52.164Z,17.17
2022-12-06T17:05:26.800Z,15.95
2022-12-06T17:07:55.595Z,17.00
2022-12-06T17:10:23.805Z,16.73
2022-12-06T17:12:51.955Z,16.98
2022-12-06T17:15:22.044Z,17.85
2022-12-06T17:17:51.404Z,16.27
2022-12-06T17:20:21.852Z,15.80
2022-12-06T17:22:50.198Z,14.85
2022-12-06T17:25:18.998Z,14.13
2022-12-06T17:27:48.374Z,13.88
2022-12-06T17:30:20.361Z,15.35
2022-12-06T17:32:49.495Z,13.82
2022-12-06T17:35:20.183Z,13.93
2022-12-06T17:37:48.853Z,13.70
2022-12-06T17:40:17.769Z,12.70
2022-12-06T17:43:01.284Z,12.18
2022-12-06T17:45:30.093Z,12.88
2022-12-06T17:47:59.569Z,12.05
2022-12-06T17:50:27.793Z,12.98
2022-12-06T17:52:56.354Z,11.98
2022-12-06T17:55:24.413Z,11.18
2022-12-06T17:57:52.605Z,11.45
2022-12-06T18:00:21.091Z,11.75
2022-12-06T18:02:49.555Z,12.23
2022-12-06T18:05:18.073Z,11.68
2022-12-06T18:07:46.508Z,10.95
2022-12-06T18:10:14.595Z,11.57
2022-12-06T18:12:43.222Z,11.13
2022-12-06T18:15:31.921Z,11.38
2022-12-06T18:18:00.380Z,11.25
2022-12-06T18:20:28.815Z,10.82
2022-12-06T18:22:57.740Z,10.93
2022-12-06T18:25:26.060Z,11.15
2022-12-06T18:27:54.885Z,11.35
2022-12-06T18:30:23.105Z,11.27
2022-12-06T18:32:51.632Z,11.48
2022-12-06T18:35:20.389Z,11.52
2022-12-06T18:37:48.396Z,11.07
2022-12-06T18:40:16.341Z,11.55
2022-12-06T18:42:44.539Z,11.13
2022-12-06T18:45:12.639Z,10.88
2022-12-06T18:47:41.444Z,11.02
2022-12-06T18:50:10.495Z,11.50
2022-12-06T18:52:39.419Z,11.35
2022-12-06T18:55:11.141Z,10.85
2022-12-06T18:57:40.269Z,10.63
2022-12-06T19:00:09.030Z,10.77
2022-12-06T19:02:37.950Z,10.50
2022-12-06T19:05:06.199Z,9.82
2022-12-06T19:07:35.057Z,10.80
2022-12-06T19:10:05.654Z,10.73
2022-12-06T19:12:33.708Z,9.68
2022-12-06T19:15:02.189Z,10.48
2022-12-06T19:17:30.866Z,10.25
2022-12-06T19:19:59.298Z,11.05
2022-12-06T19:22:27.983Z,9.63
2022-12-06T19:24:56.149Z,9.88
2022-12-06T19:27:24.868Z,9.88
2022-12-06T19:29:53.510Z,10.20
2022-12-06T19:32:21.750Z,9.32
2022-12-06T19:34:51.226Z,9.05
2022-12-06T19:37:20.070Z,8.57
2022-12-06T19:39:48.346Z,9.25
2022-12-06T19:42:35.270Z,8.73
2022-12-06T19:45:03.705Z,9.02
2022-12-06T19:47:32.265Z,8.73
2022-12-06T19:50:01.691Z,8.98
2022-12-06T19:52:31.180Z,9.63
2022-12-06T19:54:59.560Z,9.88
2022-12-06T19:57:28.105Z,9.43
2022-12-06T19:59:56.986Z,9.10
2022-12-06T20:02:25.120Z,9.25
2022-12-06T20:04:53.337Z,9.45
2022-12-06T20:07:22.340Z,8.65
2022-12-06T20:09:50.715Z,8.90
2022-12-06T20:12:18.956Z,9.07
2022-12-06T20:14:51.055Z,9.85
2022-12-06T20:17:24.274Z,10.80
2022-12-06T20:19:52.931Z,9.95
2022-12-06T20:22:23.456Z,10.13
2022-12-06T20:24:52.000Z,10.05
2022-12-06T20:27:40.362Z,10.07
2022-12-06T20:30:09.857Z,10.50
2022-12-06T20:32:38.054Z,11.07
2022-12-06T20:35:06.255Z,11.32
2022-12-06T20:37:35.190Z,11.23
2022-12-06T20:40:04.215Z,11.27
2022-12-06T20:42:33.554Z,10.73
2022-12-06T20:45:02.237Z,10.13
2022-12-06T20:47:30.395Z,10.18
2022-12-06T20:49:59.062Z,10.18
2022-12-06T20:52:27.566Z,10.13
2022-12-06T20:54:55.795Z,10.40
2022-12-06T20:57:23.994Z,10.20
2022-12-06T20:59:52.354Z,10.73
2022-12-06T21:02:21.968Z,10.95
2022-12-06T21:04:50.556Z,9.10
2022-12-06T21:07:18.757Z,9.10
2022-12-06T21:09:46.917Z,8.77
2022-12-06T21:12:15.320Z,9.18
2022-12-06T21:14:43.803Z,9.80
2022-12-06T21:17:12.396Z,9.73
2022-12-06T21:19:40.717Z,10.35
2022-12-06T21:22:10.711Z,10.50
2022-12-06T21:24:39.712Z,9.50
2022-12-06T21:27:08.230Z,9.15
2022-12-06T21:29:36.915Z,10.18
2022-12-06T21:32:07.266Z,9.15
2022-12-06T21:34:35.387Z,9.90
2022-12-06T21:37:03.825Z,9.30
2022-12-06T21:39:32.117Z,10.80
2022-12-06T21:42:00.276Z,9.80
2022-12-06T21:44:29.745Z,10.07
2022-12-06T21:46:58.451Z,9.57
2022-12-06T21:49:27.587Z,10.27
2022-12-06T21:52:02.082Z,10.32
2022-12-06T21:54:33.833Z,10.23
2022-12-06T21:57:02.137Z,11.52
2022-12-06T21:59:30.189Z,10.88
2022-12-06T22:01:58.639Z,10.02
2022-12-06T22:04:29.871Z,10.75
2022-12-06T22:06:58.160Z,11.20
2022-12-06T22:09:26.442Z,10.75
2022-12-06T22:11:55.195Z,10.63
2022-12-06T22:14:23.313Z,10.88
2022-12-06T22:16:51.794Z,10.57
2022-12-06T22:19:20.516Z,10.80
2022-12-06T22:21:49.250Z,10.52
2022-12-06T22:24:17.474Z,9.63
2022-12-06T22:26:46.354Z,12.52
2022-12-06T22:29:15.274Z,11.60
2022-12-06T22:31:43.479Z,12.43
2022-12-06T22:34:13.063Z,12.90
2022-12-06T22:36:42.054Z,11.13
2022-12-06T22:39:11.887Z,11.25
2022-12-06T22:41:40.247Z,12.60
2022-12-06T22:44:08.764Z,13.00
2022-12-06T22:46:37.646Z,13.00
2022-12-06T22:49:07.063Z,16.92
2022-12-06T22:51:38.109Z,15.13
2022-12-06T22:54:11.840Z,14.60
2022-12-06T22:56:48.072Z,17.70
2022-12-06T22:59:17.435Z,15.83
2022-12-06T23:01:45.736Z,15.63
2022-12-06T23:04:13.885Z,15.88
2022-12-06T23:06:42.149Z,18.75
